Time;durP1;ratioP1;P1;durP2;ratioP2;P2;SDS_P1;SDS_P2;PMS_P1;PMS_P2;Temp;Humidity;BMP_temperature;BMP_pressure;BME280_temperature;BME280_humidity;BME280_pressure;Samples;Min_cycle;Max_cycle;Signal;HPM_P1;HPM_P2
2021/11/25 00:01:03;;;;;;;;;27.67;25.33;;;;;;;;5062101;28;12263;-76
2021/11/25 00:03:28;;;;;;;;;27.67;23.33;;;;;;;;5062029;28;13628;-78
2021/11/25 00:05:54;;;;;;;;;33.00;32.00;;;;;;;;5062065;28;8824;-82
2021/11/25 00:08:19;;;;;;;;;34.33;26.33;;;;;;;;5061590;28;13649;-78
2021/11/25 00:10:45;;;;;;;;;24.33;21.33;;;;;;;;5061667;28;12347;-76
2021/11/25 00:13:11;;;;;;;;;33.33;27.33;;;;;;;;5061885;28;10496;-76
2021/11/25 00:15:39;;;;;;;;;27.33;25.00;;;;;;;;5062383;28;10699;-76
2021/11/25 00:18:05;;;;;;;;;21.67;18.67;;;;;;;;5061680;28;13745;-75
2021/11/25 00:20:31;;;;;;;;;20.00;17.00;;;;;;;;5059677;28;12435;-76
2021/11/25 00:22:56;;;;;;;;;20.75;19.25;;;;;;;;5061601;28;11529;-76
2021/11/25 00:25:22;;;;;;;;;19.00;19.00;;;;;;;;5061541;28;10534;-75
2021/11/25 00:27:49;;;;;;;;;24.00;21.00;;;;;;;;5061392;28;13220;-76
2021/11/25 00:30:14;;;;;;;;;24.25;20.75;;;;;;;;5061151;28;10679;-77
2021/11/25 00:32:40;;;;;;;;;25.75;22.00;;;;;;;;5061038;28;11548;-76
2021/11/25 00:35:06;;;;;;;;;31.00;24.00;;;;;;;;5061298;28;11777;-76
2021/11/25 00:37:31;;;;;;;;;27.50;22.00;;;;;;;;5061590;28;12229;-75
2021/11/25 00:39:57;;;;;;;;;30.67;28.00;;;;;;;;5076689;28;12543;-77
2021/11/25 00:42:22;;;;;;;;;25.50;20.25;;;;;;;;5076731;28;12746;-76
2021/11/25 00:44:47;;;;;;;;;23.25;19.00;;;;;;;;5061159;28;13797;-75
2021/11/25 00:47:13;;;;;;;;;19.00;17.75;;;;;;;;5061025;28;12211;-76
2021/11/25 00:49:38;;;;;;;;;25.75;21.75;;;;;;;;5060909;28;14451;-77
2021/11/25 00:52:04;;;;;;;;;26.00;20.75;;;;;;;;5060728;28;12449;-78
2021/11/25 00:54:29;;;;;;;;;31.50;23.00;;;;;;;;5060565;28;10369;-77
2021/11/25 00:56:54;;;;;;;;;29.67;22.00;;;;;;;;5060489;28;13233;-77
2021/11/25 00:59:20;;;;;;;;;21.75;21.00;;;;;;;;5060841;28;12278;-77
2021/11/25 01:01:45;;;;;;;;;20.00;18.00;;;;;;;;5061345;28;10642;-78
2021/11/25 01:04:10;;;;;;;;;20.00;20.00;;;;;;;;5060960;28;11813;-76
2021/11/25 01:06:36;;;;;;;;;24.25;20.25;;;;;;;;5061235;28;8842;-76
2021/11/25 01:09:02;;;;;;;;;18.25;16.25;;;;;;;;5061070;28;11606;-75
2021/11/25 01:11:27;;;;;;;;;21.50;16.00;;;;;;;;5060864;28;10500;-75
2021/11/25 01:13:53;;;;;;;;;21.75;19.50;;;;;;;;5060321;28;13236;-75
2021/11/25 01:16:19;;;;;;;;;21.25;20.75;;;;;;;;5060685;28;10310;-77
2021/11/25 01:18:44;;;;;;;;;23.75;19.00;;;;;;;;5060438;28;12259;-76
2021/11/25 01:21:09;;;;;;;;;22.50;16.50;;;;;;;;5059947;28;12375;-77
2021/11/25 01:23:35;;;;;;;;;16.00;12.33;;;;;;;;5061053;28;11379;-76
2021/11/25 01:26:00;;;;;;;;;22.67;20.00;;;;;;;;5061213;28;13233;-75
2021/11/25 01:28:26;;;;;;;;;23.75;21.00;;;;;;;;5060631;28;13449;-76
2021/11/25 01:30:53;;;;;;;;;27.33;20.67;;;;;;;;5060507;28;10431;-76
2021/11/25 01:33:19;;;;;;;;;20.75;15.50;;;;;;;;5060390;28;11556;-76
2021/11/25 01:35:45;;;;;;;;;20.00;18.25;;;;;;;;5060028;28;13517;-74
2021/11/25 01:38:10;;;;;;;;;22.67;20.00;;;;;;;;5060762;28;10596;-75
2021/11/25 01:40:37;;;;;;;;;23.33;18.33;;;;;;;;5060132;28;12212;-74
2021/11/25 01:43:03;;;;;;;;;25.33;23.67;;;;;;;;5060325;28;12506;-77
2021/11/25 01:45:29;;;;;;;;;25.67;22.00;;;;;;;;5059363;28;12276;-75
2021/11/25 01:47:56;;;;;;;;;22.00;18.33;;;;;;;;5060216;28;11614;-77
2021/11/25 01:50:22;;;;;;;;;19.00;15.33;;;;;;;;5060045;28;12354;-75
2021/11/25 01:52:48;;;;;;;;;21.33;17.67;;;;;;;;5059666;28;11515;-75
2021/11/25 01:55:15;;;;;;;;;21.33;19.00;;;;;;;;5059670;28;13455;-73
2021/11/25 01:57:40;;;;;;;;;18.00;18.00;;;;;;;;5060489;28;8939;-77
2021/11/25 02:00:18;;;;;;;;;17.00;15.33;;;;;;;;5060195;28;12424;-77
2021/11/25 02:02:43;;;;;;;;;19.33;13.67;;;;;;;;5060031;28;11497;-76
2021/11/25 02:05:09;;;;;;;;;20.33;18.00;;;;;;;;5059744;28;11574;-76
2021/11/25 02:07:35;;;;;;;;;19.00;19.00;;;;;;;;5060105;28;13268;-76
2021/11/25 02:10:02;;;;;;;;;19.00;17.33;;;;;;;;5060298;28;12334;-76
2021/11/25 02:12:27;;;;;;;;;20.00;15.67;;;;;;;;5059957;28;11621;-74
2021/11/25 02:14:52;;;;;;;;;30.00;19.33;;;;;;;;5059472;28;13260;-77
2021/11/25 02:17:18;;;;;;;;;17.33;17.33;;;;;;;;5059636;28;13505;-74
2021/11/25 02:19:44;;;;;;;;;19.33;15.67;;;;;;;;5058065;28;13673;-74
2021/11/25 02:22:09;;;;;;;;;18.33;18.33;;;;;;;;5059807;28;11549;-76
2021/11/25 02:24:35;;;;;;;;;18.33;16.67;;;;;;;;5060319;28;11349;-75
2021/11/25 02:27:00;;;;;;;;;20.67;17.67;;;;;;;;5060441;28;8923;-76
2021/11/25 02:29:26;;;;;;;;;25.67;19.00;;;;;;;;5059858;28;12236;-76
2021/11/25 02:31:51;;;;;;;;;18.00;17.33;;;;;;;;5059751;28;12035;-75
2021/11/25 02:34:17;;;;;;;;;22.00;19.67;;;;;;;;5059446;28;13272;-76
2021/11/25 02:36:42;;;;;;;;;26.67;19.33;;;;;;;;5074641;28;13587;-77
2021/11/25 02:39:08;;;;;;;;;23.00;23.00;;;;;;;;5057604;28;11943;-76
2021/11/25 02:41:33;;;;;;;;;18.67;17.33;;;;;;;;5058850;28;12723;-74
2021/11/25 02:43:59;;;;;;;;;19.00;18.00;;;;;;;;5059817;28;13377;-76
2021/11/25 02:46:24;;;;;;;;;21.33;17.00;;;;;;;;5059974;28;11908;-75
2021/11/25 02:48:51;;;;;;;;;21.67;20.33;;;;;;;;5059528;28;12357;-77
2021/11/25 02:51:18;;;;;;;;;23.67;22.00;;;;;;;;5059098;28;13146;-75
2021/11/25 02:53:43;;;;;;;;;22.67;19.33;;;;;;;;5058731;28;12560;-75
2021/11/25 02:56:10;;;;;;;;;26.67;22.00;;;;;;;;5060055;28;12198;-76
2021/11/25 02:58:36;;;;;;;;;22.00;20.00;;;;;;;;5062036;28;12339;-76
2021/11/25 03:01:05;;;;;;;;;21.33;18.67;;;;;;;;5062939;28;10433;-77
2021/11/25 03:03:30;;;;;;;;;18.67;17.00;;;;;;;;5063151;28;13426;-77
2021/11/25 03:05:56;;;;;;;;;21.33;19.33;;;;;;;;5078159;28;15124;-76
2021/11/25 03:08:21;;;;;;;;;21.67;20.00;;;;;;;;5062527;28;13213;-75
2021/11/25 03:10:57;;;;;;;;;19.33;16.67;;;;;;;;5062550;28;12212;-75
2021/11/25 03:13:23;;;;;;;;;21.00;21.00;;;;;;;;5063113;28;13321;-75
2021/11/25 03:15:48;;;;;;;;;21.33;17.33;;;;;;;;5062145;28;15671;-75
2021/11/25 03:18:14;;;;;;;;;23.00;18.00;;;;;;;;5062184;28;12251;-76
2021/11/25 03:20:44;;;;;;;;;21.67;20.00;;;;;;;;5062855;28;11438;-76
2021/11/25 03:23:10;;;;;;;;;17.00;17.00;;;;;;;;5061908;28;11764;-76
2021/11/25 03:25:36;;;;;;;;;21.00;19.33;;;;;;;;5062915;28;12539;-74
2021/11/25 03:28:02;;;;;;;;;17.67;17.67;;;;;;;;5061003;28;15440;-75
2021/11/25 03:30:28;;;;;;;;;18.00;18.00;;;;;;;;5062393;28;13362;-77
2021/11/25 03:32:53;;;;;;;;;17.67;17.33;;;;;;;;5062318;28;11508;-78
2021/11/25 03:35:19;;;;;;;;;24.67;20.33;;;;;;;;5062220;28;11415;-76
2021/11/25 03:37:44;;;;;;;;;24.00;19.00;;;;;;;;5062764;28;10341;-76
2021/11/25 03:40:10;;;;;;;;;18.67;16.33;;;;;;;;5077962;28;12718;-77
2021/11/25 03:42:36;;;;;;;;;21.00;19.00;;;;;;;;5062260;28;13549;-76
2021/11/25 03:45:01;;;;;;;;;17.50;16.00;;;;;;;;5060525;28;16258;-77
2021/11/25 03:47:27;;;;;;;;;16.50;14.50;;;;;;;;5060389;28;12437;-76
2021/11/25 03:49:52;;;;;;;;;17.00;14.33;;;;;;;;5061976;28;12688;-77
2021/11/25 03:52:17;;;;;;;;;19.67;17.67;;;;;;;;5061822;28;11382;-76
2021/11/25 03:54:43;;;;;;;;;18.67;15.00;;;;;;;;5062439;28;12564;-76
2021/11/25 03:57:08;;;;;;;;;15.00;15.00;;;;;;;;5062020;28;11377;-76
2021/11/25 03:59:34;;;;;;;;;13.75;11.50;;;;;;;;5063637;28;9081;-75
2021/11/25 04:01:59;;;;;;;;;17.00;15.00;;;;;;;;5062482;28;11352;-76
2021/11/25 04:04:24;;;;;;;;;20.67;16.00;;;;;;;;5061159;28;11605;-74
2021/11/25 04:06:50;;;;;;;;;12.00;12.00;;;;;;;;5062328;28;13520;-75
2021/11/25 04:09:15;;;;;;;;;15.25;13.00;;;;;;;;5061744;28;12557;-76
2021/11/25 04:11:41;;;;;;;;;18.67;16.33;;;;;;;;5062133;28;10319;-76
2021/11/25 04:14:06;;;;;;;;;13.00;13.00;;;;;;;;5061828;28;11362;-76
2021/11/25 04:16:31;;;;;;;;;22.00;17.67;;;;;;;;5061668;28;11565;-75
2021/11/25 04:18:57;;;;;;;;;22.00;18.33;;;;;;;;5061266;28;14453;-76
2021/11/25 04:21:23;;;;;;;;;16.67;16.00;;;;;;;;5061087;28;9030;-76
2021/11/25 04:23:48;;;;;;;;;19.00;18.00;;;;;;;;5062129;28;13212;-76
2021/11/25 04:26:14;;;;;;;;;20.00;17.67;;;;;;;;5062063;28;10350;-75
2021/11/25 04:28:39;;;;;;;;;18.67;17.67;;;;;;;;5077040;28;15099;-76
2021/11/25 04:36:33;;;;;;;;;21.00;16.33;;;;;;;;5061614;28;11491;-76
2021/11/25 04:38:59;;;;;;;;;14.33;11.00;;;;;;;;5061640;28;12560;-76
2021/11/25 04:41:24;;;;;;;;;21.00;17.00;;;;;;;;5060939;28;13363;-77
2021/11/25 04:43:50;;;;;;;;;17.33;15.33;;;;;;;;5061408;28;12196;-76
2021/11/25 04:46:15;;;;;;;;;16.33;15.67;;;;;;;;5061289;28;13395;-76
2021/11/25 04:48:41;;;;;;;;;17.33;13.67;;;;;;;;5061393;28;11385;-76
2021/11/25 04:51:06;;;;;;;;;17.00;14.33;;;;;;;;5059630;28;10213;-76
2021/11/25 04:53:31;;;;;;;;;21.00;17.33;;;;;;;;5061113;28;11450;-77
2021/11/25 04:55:57;;;;;;;;;14.00;14.00;;;;;;;;5060827;28;11070;-76
2021/11/25 04:58:22;;;;;;;;;18.67;18.67;;;;;;;;5060848;28;14557;-76
2021/11/25 05:00:48;;;;;;;;;17.25;15.50;;;;;;;;5061362;28;12415;-76
2021/11/25 05:03:13;;;;;;;;;17.00;13.25;;;;;;;;5061670;28;11362;-76
2021/11/25 05:05:39;;;;;;;;;18.00;15.75;;;;;;;;5060898;28;11420;-76
2021/11/25 05:08:04;;;;;;;;;9.25;8.25;;;;;;;;5061043;28;10631;-75
2021/11/25 05:10:30;;;;;;;;;13.75;11.25;;;;;;;;5060521;28;22336;-77
2021/11/25 05:12:55;;;;;;;;;15.25;15.25;;;;;;;;5060429;28;23449;-76
2021/11/25 05:15:21;;;;;;;;;16.25;14.50;;;;;;;;5060472;28;10274;-78
2021/11/25 05:17:46;;;;;;;;;18.00;16.00;;;;;;;;5060433;28;11562;-76
2021/11/25 05:20:13;;;;;;;;;14.25;12.00;;;;;;;;5058403;28;11686;-77
2021/11/25 05:22:38;;;;;;;;;18.33;13.67;;;;;;;;5059449;28;10400;-75
2021/11/25 05:25:04;;;;;;;;;17.33;14.67;;;;;;;;5060779;28;11635;-78
2021/11/25 05:27:30;;;;;;;;;16.00;16.00;;;;;;;;5059182;28;11893;-76
2021/11/25 05:29:55;;;;;;;;;14.75;12.50;;;;;;;;5060261;28;11513;-78
2021/11/25 05:32:20;;;;;;;;;17.50;13.50;;;;;;;;5060197;28;11525;-78
2021/11/25 05:34:46;;;;;;;;;11.25;11.25;;;;;;;;5060178;28;10343;-79
2021/11/25 05:37:12;;;;;;;;;16.50;16.00;;;;;;;;5060335;28;11375;-76
2021/11/25 05:39:38;;;;;;;;;14.75;13.00;;;;;;;;5060948;28;12669;-75
2021/11/25 05:42:03;;;;;;;;;16.00;13.25;;;;;;;;5060508;28;11654;-77
2021/11/25 05:44:28;;;;;;;;;13.00;11.75;;;;;;;;5060351;28;11924;-78
2021/11/25 05:46:54;;;;;;;;;12.75;12.75;;;;;;;;5060407;28;10498;-77
2021/11/25 05:49:19;;;;;;;;;13.25;10.50;;;;;;;;5060492;28;10334;-77
2021/11/25 05:51:44;;;;;;;;;13.25;12.75;;;;;;;;5060203;28;11373;-77
2021/11/25 05:54:10;;;;;;;;;14.25;14.25;;;;;;;;5060417;28;9007;-78
2021/11/25 05:56:35;;;;;;;;;13.00;11.00;;;;;;;;5059613;28;10380;-77
2021/11/25 05:59:00;;;;;;;;;17.25;15.00;;;;;;;;5060371;28;11640;-80
2021/11/25 06:01:26;;;;;;;;;14.00;11.00;;;;;;;;5056449;28;10328;-79
2021/11/25 06:03:53;;;;;;;;;11.00;11.00;;;;;;;;5045125;28;10409;-77
2021/11/25 06:06:18;;;;;;;;;11.00;8.00;;;;;;;;5045963;28;9216;-78
2021/11/25 06:51:08;;;;;;;;;15.33;15.33;;;;;;;;5158161;27;1604484;-78
2021/11/25 06:53:33;;;;;;;;;12.33;12.33;;;;;;;;5178731;27;22586;-79
2021/11/25 06:55:58;;;;;;;;;17.67;12.00;;;;;;;;5195802;27;8880;-75
2021/11/25 06:58:24;;;;;;;;;8.00;7.33;;;;;;;;5174601;27;11912;-78
2021/11/25 07:00:49;;;;;;;;;12.25;11.75;;;;;;;;5179474;27;22432;-79
2021/11/25 07:03:15;;;;;;;;;11.50;11.50;;;;;;;;5179384;27;22506;-75
2021/11/25 07:05:40;;;;;;;;;12.75;12.00;;;;;;;;5180813;27;11636;-78
2021/11/25 07:08:07;;;;;;;;;13.25;11.25;;;;;;;;5160361;27;14694;-73
2021/11/25 07:10:32;;;;;;;;;10.50;9.75;;;;;;;;5176917;27;13167;-78
2021/11/25 07:12:57;;;;;;;;;11.25;8.75;;;;;;;;5178592;27;22590;-80
2021/11/25 07:15:24;;;;;;;;;10.50;10.50;;;;;;;;5159847;27;12626;-80
2021/11/25 07:17:49;;;;;;;;;12.25;10.25;;;;;;;;5179435;27;21580;-76
2021/11/25 07:20:15;;;;;;;;;13.00;12.00;;;;;;;;5193280;27;11703;-77
2021/11/25 07:22:41;;;;;;;;;12.25;12.25;;;;;;;;5179086;27;13478;-77
2021/11/25 07:25:07;;;;;;;;;16.75;14.00;;;;;;;;5198550;27;12656;-73
2021/11/25 07:27:33;;;;;;;;;13.00;13.00;;;;;;;;5194662;27;11497;-71
2021/11/25 07:29:58;;;;;;;;;12.00;12.00;;;;;;;;5197481;27;11492;-69
2021/11/25 07:32:24;;;;;;;;;14.75;13.00;;;;;;;;5198215;27;8881;-74
2021/11/25 07:34:49;;;;;;;;;15.00;13.00;;;;;;;;5197892;27;10452;-72
2021/11/25 07:37:15;;;;;;;;;14.50;14.00;;;;;;;;5197961;27;11652;-72
2021/11/25 07:39:40;;;;;;;;;16.00;13.00;;;;;;;;5198148;27;11619;-71
2021/11/25 07:42:05;;;;;;;;;11.50;6.25;;;;;;;;5198712;27;10339;-71
2021/11/25 07:44:31;;;;;;;;;13.00;11.75;;;;;;;;5195253;27;21370;-71
2021/11/25 07:46:56;;;;;;;;;15.25;13.00;;;;;;;;5198178;27;22814;-72
2021/11/25 07:49:22;;;;;;;;;14.50;13.25;;;;;;;;5197741;27;11484;-71
2021/11/25 07:51:48;;;;;;;;;15.25;13.00;;;;;;;;5197842;27;12685;-71
2021/11/25 07:54:13;;;;;;;;;14.25;13.00;;;;;;;;5198529;27;11546;-71
2021/11/25 07:56:39;;;;;;;;;15.75;13.50;;;;;;;;5199182;27;8794;-72
2021/11/25 07:59:05;;;;;;;;;13.75;11.00;;;;;;;;5198445;27;11543;-71
2021/11/25 08:01:31;;;;;;;;;13.25;10.25;;;;;;;;5189830;27;11654;-72
2021/11/25 08:03:56;;;;;;;;;13.00;9.00;;;;;;;;5164945;27;12501;-74
2021/11/25 08:06:22;;;;;;;;;10.50;9.50;;;;;;;;5183516;27;21445;-71
2021/11/25 08:08:47;;;;;;;;;8.75;8.75;;;;;;;;5183887;27;10306;-70
2021/11/25 08:11:12;;;;;;;;;9.00;8.50;;;;;;;;5182515;27;22407;-72
2021/11/25 08:13:38;;;;;;;;;4.00;4.00;;;;;;;;5184111;27;11288;-73
2021/11/25 08:16:04;;;;;;;;;6.00;4.50;;;;;;;;5183429;27;11544;-73
2021/11/25 08:18:29;;;;;;;;;7.00;7.00;;;;;;;;5183236;27;11500;-72
2021/11/25 08:20:54;;;;;;;;;6.75;6.75;;;;;;;;5182839;27;11297;-72
2021/11/25 08:23:19;;;;;;;;;15.75;11.50;;;;;;;;5183539;27;11290;-73
2021/11/25 08:25:45;;;;;;;;;12.25;10.75;;;;;;;;5182397;27;22201;-73
2021/11/25 08:28:10;;;;;;;;;15.25;13.25;;;;;;;;5183218;27;11357;-74
2021/11/25 08:30:35;;;;;;;;;13.75;10.25;;;;;;;;5183596;27;10901;-72
2021/11/25 08:33:01;;;;;;;;;10.25;9.00;;;;;;;;5184482;27;9717;-73
2021/11/25 08:35:27;;;;;;;;;9.00;9.00;;;;;;;;5183807;27;22640;-72
2021/11/25 08:37:53;;;;;;;;;9.50;9.00;;;;;;;;5183832;27;16198;-72
2021/11/25 08:40:18;;;;;;;;;12.75;9.00;;;;;;;;5185184;27;8818;-72
2021/11/25 08:42:44;;;;;;;;;14.00;9.00;;;;;;;;5184166;27;16290;-72
2021/11/25 08:45:09;;;;;;;;;9.00;9.00;;;;;;;;5184677;27;9073;-74
2021/11/25 08:47:35;;;;;;;;;8.25;7.00;;;;;;;;5183260;27;17353;-74
2021/11/25 08:50:00;;;;;;;;;9.00;8.75;;;;;;;;5182941;27;10257;-73
2021/11/25 08:52:26;;;;;;;;;16.00;13.00;;;;;;;;5164080;27;13063;-74
2021/11/25 08:54:51;;;;;;;;;16.75;15.50;;;;;;;;5182989;27;22417;-74
2021/11/25 08:57:17;;;;;;;;;17.50;15.00;;;;;;;;5183662;27;10351;-74
2021/11/25 08:59:43;;;;;;;;;16.75;12.75;;;;;;;;5180193;27;11411;-74
2021/11/25 09:02:09;;;;;;;;;11.25;10.25;;;;;;;;5183629;27;11474;-74
2021/11/25 09:04:34;;;;;;;;;13.50;11.25;;;;;;;;5184092;27;10403;-74
2021/11/25 09:06:59;;;;;;;;;8.00;8.00;;;;;;;;5183745;27;11505;-73
2021/11/25 09:09:25;;;;;;;;;9.25;9.00;;;;;;;;5183315;27;22412;-73
2021/11/25 09:11:50;;;;;;;;;8.75;7.75;;;;;;;;5183338;27;10266;-72
2021/11/25 09:14:16;;;;;;;;;8.50;8.50;;;;;;;;5182314;27;11363;-73
2021/11/25 09:16:41;;;;;;;;;9.00;8.00;;;;;;;;5183310;27;10407;-74
2021/11/25 09:19:06;;;;;;;;;12.00;9.25;;;;;;;;5164028;27;11653;-74
2021/11/25 09:21:32;;;;;;;;;10.00;9.00;;;;;;;;5182860;27;21392;-74
2021/11/25 09:24:07;;;;;;;;;10.25;8.75;;;;;;;;5164004;27;11053;-74
2021/11/25 09:26:33;;;;;;;;;9.75;9.00;;;;;;;;5177696;27;10661;-73
2021/11/25 09:28:59;;;;;;;;;6.25;6.25;;;;;;;;5182064;27;21446;-73
2021/11/25 09:31:25;;;;;;;;;8.00;8.00;;;;;;;;5164374;27;13576;-73
2021/11/25 09:33:51;;;;;;;;;9.25;7.50;;;;;;;;5183040;27;11588;-74
2021/11/25 09:36:16;;;;;;;;;8.00;8.00;;;;;;;;5183098;27;11507;-73
2021/11/25 09:38:42;;;;;;;;;12.50;10.00;;;;;;;;5182847;27;11289;-74
2021/11/25 09:41:07;;;;;;;;;8.75;7.50;;;;;;;;5182459;27;23862;-73
2021/11/25 09:43:32;;;;;;;;;12.75;8.50;;;;;;;;5182074;27;22668;-74
2021/11/25 09:45:58;;;;;;;;;9.50;8.50;;;;;;;;5181994;27;21407;-74
2021/11/25 09:48:25;;;;;;;;;8.00;8.00;;;;;;;;5182895;27;16241;-74
2021/11/25 09:50:51;;;;;;;;;15.25;11.25;;;;;;;;5182434;27;11365;-74
2021/11/25 09:53:18;;;;;;;;;12.50;10.75;;;;;;;;5182218;27;22262;-75
2021/11/25 09:55:46;;;;;;;;;9.00;9.00;;;;;;;;5182782;27;12161;-74
2021/11/25 09:58:13;;;;;;;;;9.25;9.25;;;;;;;;5162763;27;24322;-75
2021/11/25 10:00:39;;;;;;;;;10.00;10.00;;;;;;;;5182390;27;11568;-70
2021/11/25 10:03:04;;;;;;;;;10.00;8.00;;;;;;;;5179090;27;22842;-72
2021/11/25 10:05:30;;;;;;;;;9.50;8.00;;;;;;;;5181988;27;17053;-72
2021/11/25 10:07:56;;;;;;;;;8.50;7.75;;;;;;;;5182238;27;16217;-72
2021/11/25 10:10:22;;;;;;;;;9.75;7.00;;;;;;;;5182264;27;11526;-72
2021/11/25 10:12:47;;;;;;;;;8.75;8.75;;;;;;;;5181513;27;12104;-72
2021/11/25 10:15:22;;;;;;;;;4.00;3.00;;;;;;;;5182483;27;11354;-70
2021/11/25 10:17:49;;;;;;;;;8.50;8.25;;;;;;;;5176680;27;11393;-71
2021/11/25 10:20:19;;;;;;;;;8.50;8.50;;;;;;;;5182001;27;11749;-70
2021/11/25 10:23:13;;;;;;;;;9.00;5.75;;;;;;;;5182041;27;11534;-71
2021/11/25 10:25:41;;;;;;;;;8.00;8.00;;;;;;;;5173486;27;11728;-72
2021/11/25 10:28:07;;;;;;;;;7.50;5.25;;;;;;;;5179769;27;11439;-71
2021/11/25 10:30:36;;;;;;;;;8.25;8.25;;;;;;;;5181395;27;11793;-73
2021/11/25 10:33:01;;;;;;;;;7.00;6.75;;;;;;;;5181946;27;11407;-73
2021/11/25 10:35:33;;;;;;;;;9.25;8.00;;;;;;;;5182218;27;12239;-70
2021/11/25 10:40:30;;;;;;;;;8.25;7.00;;;;;;;;5181779;27;11388;-74
2021/11/25 10:42:56;;;;;;;;;4.50;3.25;;;;;;;;5182049;27;11475;-72
2021/11/25 10:45:21;;;;;;;;;6.00;5.25;;;;;;;;5182187;27;12611;-71
2021/11/25 10:47:57;;;;;;;;;8.75;6.75;;;;;;;;5182030;27;10282;-72
2021/11/25 10:50:22;;;;;;;;;7.25;7.25;;;;;;;;5181603;27;10358;-71
2021/11/25 19:09:46;;;;;;;;;28.67;25.33;;;;;;;;5195695;27;78675;-80
2021/11/25 19:12:12;;;;;;;;;30.67;27.33;;;;;;;;5200722;27;23605;-80
2021/11/25 19:14:37;;;;;;;;;24.67;24.33;;;;;;;;5200562;27;10803;-80
2021/11/25 19:17:02;;;;;;;;;21.67;21.33;;;;;;;;5200066;27;10682;-75
2021/11/25 19:19:28;;;;;;;;;30.00;28.00;;;;;;;;5198253;27;10017;-78
2021/11/25 19:21:53;;;;;;;;;24.00;21.50;;;;;;;;5172992;27;13952;-78
2021/11/25 19:24:19;;;;;;;;;18.50;18.50;;;;;;;;5191033;27;13519;-80
2021/11/25 19:26:45;;;;;;;;;20.50;20.00;;;;;;;;5200110;27;12200;-80
2021/11/25 19:29:10;;;;;;;;;23.75;19.75;;;;;;;;5200182;27;13985;-78
2021/11/25 19:31:36;;;;;;;;;17.00;16.00;;;;;;;;5200440;27;13892;-75
2021/11/25 19:34:03;;;;;;;;;21.00;21.00;;;;;;;;5199890;27;13331;-76
2021/11/25 19:36:28;;;;;;;;;18.00;16.25;;;;;;;;5200441;27;12505;-83
2021/11/25 19:38:53;;;;;;;;;20.00;19.00;;;;;;;;5200733;27;13262;-88
2021/11/25 19:41:19;;;;;;;;;19.75;18.75;;;;;;;;5201396;27;14768;-86
2021/11/25 19:43:44;;;;;;;;;23.75;23.00;;;;;;;;5182362;27;13224;-88
2021/11/25 19:46:10;;;;;;;;;22.00;20.00;;;;;;;;5188904;27;13236;-81
2021/11/25 19:48:35;;;;;;;;;22.00;20.00;;;;;;;;5188318;27;11681;-89
2021/11/25 19:51:01;;;;;;;;;21.75;19.50;;;;;;;;5188264;27;8830;-88
2021/11/25 19:53:26;;;;;;;;;21.00;20.25;;;;;;;;5190044;27;12180;-88
2021/11/25 19:55:53;;;;;;;;;26.25;21.50;;;;;;;;5188544;27;12231;-87
2021/11/25 19:58:18;;;;;;;;;19.50;19.50;;;;;;;;5193629;27;11449;-88
2021/11/25 20:00:44;;;;;;;;;23.00;22.50;;;;;;;;5175461;27;12395;-88
2021/11/25 20:03:09;;;;;;;;;21.25;21.25;;;;;;;;5186783;27;12199;-88
2021/11/25 20:05:35;;;;;;;;;23.25;21.00;;;;;;;;5189718;27;11511;-86
2021/11/25 20:08:00;;;;;;;;;25.00;21.00;;;;;;;;5170428;27;11693;-86
2021/11/25 20:10:26;;;;;;;;;26.75;22.00;;;;;;;;5190838;27;9146;-86
2021/11/25 20:12:55;;;;;;;;;24.75;22.00;;;;;;;;5192038;27;10467;-85
2021/11/25 20:15:21;;;;;;;;;28.00;24.75;;;;;;;;5173436;27;11397;-85
2021/11/25 20:17:47;;;;;;;;;27.00;24.75;;;;;;;;5191778;27;11471;-69
2021/11/25 20:20:15;;;;;;;;;25.50;25.00;;;;;;;;5178067;27;11492;-74
2021/11/25 20:22:40;;;;;;;;;26.75;25.00;;;;;;;;5173389;27;11598;-74
2021/11/25 20:25:06;;;;;;;;;24.25;23.25;;;;;;;;5175305;27;11635;-74
2021/11/25 20:27:32;;;;;;;;;25.25;23.50;;;;;;;;5171662;27;11681;-76
2021/11/25 20:29:58;;;;;;;;;26.75;23.00;;;;;;;;5170384;27;11514;-76
2021/11/25 20:32:24;;;;;;;;;29.50;26.50;;;;;;;;5153887;27;13388;-74
2021/11/25 20:34:49;;;;;;;;;26.00;25.00;;;;;;;;5170197;27;12263;-72
2021/11/25 20:37:15;;;;;;;;;35.25;31.25;;;;;;;;5170523;27;11857;-72
2021/11/25 20:39:40;;;;;;;;;35.33;30.67;;;;;;;;5171944;27;13222;-72
2021/11/25 20:42:05;;;;;;;;;25.67;23.67;;;;;;;;5173367;27;10054;-72
2021/11/25 20:44:31;;;;;;;;;34.67;32.67;;;;;;;;5171321;27;12236;-72
2021/11/25 20:46:58;;;;;;;;;28.50;27.75;;;;;;;;5172795;27;10819;-73
2021/11/25 20:49:23;;;;;;;;;28.75;28.75;;;;;;;;5172096;27;13660;-72
2021/11/25 20:51:49;;;;;;;;;32.00;31.00;;;;;;;;5183135;27;11562;-74
2021/11/25 20:54:21;;;;;;;;;28.50;27.00;;;;;;;;5183122;27;14366;-69
2021/11/25 20:56:47;;;;;;;;;35.75;31.75;;;;;;;;5179920;27;12283;-71
2021/11/25 20:59:13;;;;;;;;;32.50;30.25;;;;;;;;5183953;27;13258;-71
2021/11/25 21:01:38;;;;;;;;;33.25;29.00;;;;;;;;5164271;27;10402;-74
2021/11/25 21:04:03;;;;;;;;;29.00;29.00;;;;;;;;5165075;27;12712;-85
2021/11/25 21:06:29;;;;;;;;;35.00;30.75;;;;;;;;5184582;27;8956;-79
2021/11/25 21:08:54;;;;;;;;;26.75;25.00;;;;;;;;5183866;27;13270;-82
2021/11/25 21:11:20;;;;;;;;;32.25;27.75;;;;;;;;5183697;27;13239;-81
2021/11/25 21:13:53;;;;;;;;;29.75;28.00;;;;;;;;5160287;27;13855;-80
2021/11/25 21:16:18;;;;;;;;;25.75;24.75;;;;;;;;5180646;27;14756;-83
2021/11/25 21:18:44;;;;;;;;;31.75;28.75;;;;;;;;5183725;27;11915;-81
2021/11/25 21:21:13;;;;;;;;;29.75;28.25;;;;;;;;5181626;27;10684;-82
2021/11/25 21:23:38;;;;;;;;;31.00;30.00;;;;;;;;5153731;27;14670;-81
2021/11/25 21:26:04;;;;;;;;;30.50;29.50;;;;;;;;5169838;27;13235;-81
2021/11/25 21:28:33;;;;;;;;;33.00;32.25;;;;;;;;5151888;27;12730;-80
2021/11/25 21:30:59;;;;;;;;;27.75;25.25;;;;;;;;5171699;27;12482;-81
2021/11/25 21:33:24;;;;;;;;;32.00;29.00;;;;;;;;5171127;27;12447;-81
2021/11/25 21:35:50;;;;;;;;;39.00;34.00;;;;;;;;5152279;27;15345;-81
2021/11/25 21:38:15;;;;;;;;;32.00;29.00;;;;;;;;5172138;27;11080;-80
2021/11/25 21:40:41;;;;;;;;;33.50;33.25;;;;;;;;5170090;27;9967;-81
2021/11/25 21:43:06;;;;;;;;;32.50;26.00;;;;;;;;5171982;27;12425;-80
2021/11/25 21:45:32;;;;;;;;;33.50;32.00;;;;;;;;5150150;27;12555;-82
2021/11/25 21:47:57;;;;;;;;;23.75;23.50;;;;;;;;5171106;27;9550;-82
2021/11/25 21:50:25;;;;;;;;;28.75;25.75;;;;;;;;5170072;27;14012;-81
2021/11/25 21:52:52;;;;;;;;;32.75;27.50;;;;;;;;5171360;27;12285;-82
2021/11/25 21:55:19;;;;;;;;;33.25;28.00;;;;;;;;5154251;27;16313;-82
2021/11/25 21:57:44;;;;;;;;;28.00;27.75;;;;;;;;5173289;27;11531;-76
2021/11/25 22:00:11;;;;;;;;;28.25;24.50;;;;;;;;5161762;27;13477;-84
2021/11/25 22:02:39;;;;;;;;;25.00;23.25;;;;;;;;5162701;27;10522;-80
2021/11/25 22:05:05;;;;;;;;;26.25;23.50;;;;;;;;5162223;27;12912;-78
2021/11/25 22:07:31;;;;;;;;;23.50;21.00;;;;;;;;5160750;27;12284;-80
2021/11/25 22:09:57;;;;;;;;;32.50;28.00;;;;;;;;5161283;27;11469;-80
2021/11/25 22:12:22;;;;;;;;;27.50;26.50;;;;;;;;5162121;27;10572;-81
2021/11/25 22:14:48;;;;;;;;;26.50;20.75;;;;;;;;5161572;27;13970;-80
2021/11/25 22:17:13;;;;;;;;;31.25;26.25;;;;;;;;5175129;27;11421;-79
2021/11/25 22:19:40;;;;;;;;;30.00;25.00;;;;;;;;5175527;27;12198;-78
2021/11/25 22:24:58;;;;;;;;;30.75;27.75;;;;;;;;5182772;27;13253;-79
2021/11/25 22:27:27;;;;;;;;;25.75;24.50;;;;;;;;5182432;27;11441;-79
2021/11/25 22:29:53;;;;;;;;;25.75;24.50;;;;;;;;5182652;27;13360;-79
2021/11/25 22:32:19;;;;;;;;;29.75;24.50;;;;;;;;5183094;27;11506;-79
2021/11/25 22:34:45;;;;;;;;;30.25;27.25;;;;;;;;5182341;27;9882;-79
2021/11/25 22:37:10;;;;;;;;;24.50;24.00;;;;;;;;5162751;27;13571;-79
2021/11/25 22:39:35;;;;;;;;;35.50;30.00;;;;;;;;5182150;27;13211;-78
2021/11/25 22:42:01;;;;;;;;;33.50;30.50;;;;;;;;5182207;27;11738;-79
2021/11/25 22:44:29;;;;;;;;;31.25;29.25;;;;;;;;5182218;27;12520;-79
2021/11/25 22:46:54;;;;;;;;;27.50;26.75;;;;;;;;5163489;27;14320;-79
2021/11/25 22:49:25;;;;;;;;;29.50;25.75;;;;;;;;5182042;27;13368;-79
2021/11/25 22:51:50;;;;;;;;;24.75;22.75;;;;;;;;5182597;27;9611;-80
2021/11/25 22:54:16;;;;;;;;;28.50;27.25;;;;;;;;5123579;27;11447;-80
2021/11/25 22:56:41;;;;;;;;;28.00;25.50;;;;;;;;4965158;27;11852;-80
2021/11/25 22:59:06;;;;;;;;;38.25;32.50;;;;;;;;5138771;27;10361;-78
2021/11/25 23:01:32;;;;;;;;;29.75;18.75;;;;;;;;5138158;27;12739;-78
2021/11/25 23:03:57;;;;;;;;;25.75;25.75;;;;;;;;5140054;27;13439;-76
2021/11/25 23:06:23;;;;;;;;;31.75;27.50;;;;;;;;5140370;27;9913;-77
2021/11/25 23:08:48;;;;;;;;;31.50;29.75;;;;;;;;5140179;27;14025;-78
2021/11/25 23:11:13;;;;;;;;;29.50;26.25;;;;;;;;5140486;27;10812;-79
2021/11/25 23:13:39;;;;;;;;;32.75;32.75;;;;;;;;5140444;27;13257;-80
2021/11/25 23:16:04;;;;;;;;;33.00;30.00;;;;;;;;5140433;27;12256;-80
2021/11/25 23:18:30;;;;;;;;;31.00;26.25;;;;;;;;5139883;27;11437;-80
2021/11/25 23:20:57;;;;;;;;;29.25;28.75;;;;;;;;5121224;27;15234;-80
2021/11/25 23:23:23;;;;;;;;;32.75;30.25;;;;;;;;5140466;27;13672;-79